Time;durP1;ratioP1;P1;durP2;ratioP2;P2;SDS_P1;SDS_P2;PMS_P1;PMS_P2;Temp;Humidity;BMP_temperature;BMP_pressure;BME280_temperature;BME280_humidity;BME280_pressure;Samples;Min_cycle;Max_cycle;Signal;HPM_P1;HPM_P2
2023/06/05 00:01:35;;;;;;;;;;;;;;;13.08;100.00;102198.75;4947840;28;19977;-76
2023/06/05 00:04:00;;;;;;;;;;;;;;;13.07;100.00;102197.91;4947329;28;19965;-77
2023/06/05 00:06:25;;;;;;;;;;;;;;;12.98;100.00;102201.19;4965184;28;20029;-76
2023/06/05 00:08:51;;;;;;;;;;;;;;;12.90;100.00;102202.56;4954512;28;20352;-76
2023/06/05 00:11:16;;;;;;;;;;;;;;;12.92;100.00;102201.59;4953802;28;20389;-77
2023/06/05 00:13:41;;;;;;;;;;;;;;;12.84;100.00;102199.41;4947696;28;19968;-75
2023/06/05 00:16:07;;;;;;;;;;;;;;;12.88;100.00;102199.09;4952965;28;19926;-75
2023/06/05 00:18:32;;;;;;;;;;;;;;;12.84;100.00;102194.03;4968359;28;20357;-75
2023/06/05 00:20:58;;;;;;;;;;;;;;;12.74;100.00;102197.31;4952468;28;19922;-76
2023/06/05 00:23:23;;;;;;;;;;;;;;;12.77;100.00;102200.78;4949781;28;20017;-75
2023/06/05 00:25:48;;;;;;;;;;;;;;;12.74;100.00;102197.31;4953680;28;20281;-76
2023/06/05 00:28:13;;;;;;;;;;;;;;;12.78;100.00;102189.91;4966539;28;20384;-79
2023/06/05 00:30:39;;;;;;;;;;;;;;;12.71;100.00;102194.81;4952077;28;19933;-73
2023/06/05 00:33:04;;;;;;;;;;;;;;;12.58;100.00;102192.06;4951778;28;20046;-74
2023/06/05 00:35:29;;;;;;;;;;;;;;;12.58;100.00;102188.50;4972021;28;19926;-76
2023/06/05 00:37:56;;;;;;;;;;;;;;;12.58;100.00;102194.75;4952799;28;20360;-74
2023/06/05 00:40:21;;;;;;;;;;;;;;;12.52;100.00;102192.47;4950678;28;20011;-74
2023/06/05 00:42:46;;;;;;;;;;;;;;;12.53;100.00;102187.94;4966467;28;20257;-74
2023/06/05 00:45:11;;;;;;;;;;;;;;;12.55;100.00;102192.28;4968307;28;19929;-75
2023/06/05 00:47:37;;;;;;;;;;;;;;;12.45;100.00;102194.69;4955394;28;19984;-76
2023/06/05 00:50:02;;;;;;;;;;;;;;;12.37;100.00;102194.31;4965614;28;20040;-75
2023/06/05 00:52:27;;;;;;;;;;;;;;;12.38;100.00;102195.16;4965521;28;20052;-74
2023/06/05 00:54:52;;;;;;;;;;;;;;;12.37;100.00;102201.53;4951664;28;20014;-75
2023/06/05 00:57:18;;;;;;;;;;;;;;;12.39;100.00;102195.09;4973206;28;19922;-74
2023/06/05 00:59:44;;;;;;;;;;;;;;;12.34;100.00;102194.50;4958146;28;19938;-74
2023/06/05 01:02:10;;;;;;;;;;;;;;;12.27;100.00;102195.88;4960233;28;20190;-74
2023/06/05 01:04:36;;;;;;;;;;;;;;;12.26;100.00;102195.00;4959416;28;19929;-75
2023/06/05 01:07:01;;;;;;;;;;;;;;;12.17;100.00;102184.81;4954547;28;19922;-75
2023/06/05 01:09:27;;;;;;;;;;;;;;;12.36;100.00;102194.41;4978321;28;19929;-75
2023/06/05 01:11:53;;;;;;;;;;;;;;;12.32;100.00;102201.81;4956578;28;20045;-75
2023/06/05 01:14:22;;;;;;;;;;;;;;;12.20;100.00;102197.19;4968253;28;19918;-75
2023/06/05 01:16:53;;;;;;;;;;;;;;;12.15;100.00;102201.06;4976295;28;20301;-75
2023/06/05 01:19:19;;;;;;;;;;;;;;;12.11;100.00;102193.28;4970882;28;19918;-75
2023/06/05 01:21:44;;;;;;;;;;;;;;;12.02;100.00;102183.94;4983846;28;19973;-74
2023/06/05 01:24:13;;;;;;;;;;;;;;;11.96;100.00;102187.88;4956778;28;19926;-74
2023/06/05 01:26:43;;;;;;;;;;;;;;;11.95;100.00;102187.94;4961384;28;19935;-73
2023/06/05 01:29:09;;;;;;;;;;;;;;;11.90;100.00;102193.63;4975589;28;19925;-74
2023/06/05 01:31:36;;;;;;;;;;;;;;;12.00;100.00;102186.75;4981525;28;20876;-74
2023/06/05 01:34:03;;;;;;;;;;;;;;;11.93;100.00;102185.34;4973250;28;19918;-74
2023/06/05 01:36:29;;;;;;;;;;;;;;;11.90;100.00;102179.31;4962101;28;19922;-74
2023/06/05 01:38:54;;;;;;;;;;;;;;;11.89;100.00;102182.97;4977193;28;20287;-74
2023/06/05 01:41:20;;;;;;;;;;;;;;;11.89;100.00;102181.13;4969467;28;19937;-75
2023/06/05 01:43:45;;;;;;;;;;;;;;;11.77;100.00;102179.22;4954658;28;20360;-76
2023/06/05 01:46:10;;;;;;;;;;;;;;;11.70;100.00;102176.88;4968584;28;19923;-74
2023/06/05 01:48:38;;;;;;;;;;;;;;;11.67;100.00;102184.25;4954874;28;19965;-75
2023/06/05 01:51:03;;;;;;;;;;;;;;;11.67;100.00;102176.19;4956015;28;20436;-74
2023/06/05 01:53:29;;;;;;;;;;;;;;;11.63;100.00;102177.38;4955665;28;20134;-74
2023/06/05 01:55:57;;;;;;;;;;;;;;;11.58;100.00;102174.94;4976577;28;19933;-74
2023/06/05 01:58:23;;;;;;;;;;;;;;;11.47;100.00;102177.44;4951661;28;19922;-74
2023/06/05 02:00:48;;;;;;;;;;;;;;;11.48;100.00;102173.78;4951740;28;19922;-74
2023/06/05 02:03:15;;;;;;;;;;;;;;;11.18;100.00;102124.44;4951171;28;19968;-75
2023/06/05 02:05:41;;;;;;;;;;;;;;;11.50;100.00;102171.88;4957293;28;19925;-74
2023/06/05 02:08:09;;;;;;;;;;;;;;;11.55;100.00;102164.34;4964825;28;19922;-74
2023/06/05 02:10:35;;;;;;;;;;;;;;;11.49;100.00;102167.44;4968885;28;19929;-74
2023/06/05 02:13:00;;;;;;;;;;;;;;;11.40;100.00;102163.47;4958153;28;19922;-73
2023/06/05 02:15:26;;;;;;;;;;;;;;;11.38;100.00;102168.94;4957631;28;19984;-74
2023/06/05 02:17:53;;;;;;;;;;;;;;;11.34;100.00;102170.09;4973090;28;19964;-74
2023/06/05 02:20:19;;;;;;;;;;;;;;;11.31;100.00;102162.19;4973319;28;19922;-74
2023/06/05 02:22:44;;;;;;;;;;;;;;;11.20;100.00;102170.06;4955015;28;19926;-74
2023/06/05 02:25:10;;;;;;;;;;;;;;;11.20;100.00;102162.84;4986544;28;19973;-74
2023/06/05 02:27:36;;;;;;;;;;;;;;;11.16;100.00;102155.91;4949488;28;19922;-74
2023/06/05 02:30:01;;;;;;;;;;;;;;;11.16;100.00;102155.06;4979079;28;20268;-74
2023/06/05 02:32:28;;;;;;;;;;;;;;;11.12;100.00;102158.88;4955824;28;20514;-74
2023/06/05 02:34:56;;;;;;;;;;;;;;;11.06;100.00;102160.13;4976953;28;20283;-74
2023/06/05 02:37:22;;;;;;;;;;;;;;;11.00;100.00;102164.00;4955120;28;20377;-75
2023/06/05 02:39:47;;;;;;;;;;;;;;;11.04;100.00;102162.03;4975635;28;20045;-74
2023/06/05 02:42:12;;;;;;;;;;;;;;;11.02;100.00;102155.88;4972035;28;20202;-75
2023/06/05 02:44:38;;;;;;;;;;;;;;;11.05;100.00;102151.16;4968046;28;19922;-74
2023/06/05 02:47:03;;;;;;;;;;;;;;;11.05;100.00;102153.84;4971586;28;19964;-74
2023/06/05 02:49:28;;;;;;;;;;;;;;;10.98;100.00;102149.81;4973025;28;20097;-75
2023/06/05 02:51:54;;;;;;;;;;;;;;;10.96;100.00;102154.41;4978604;28;19922;-74
2023/06/05 02:54:19;;;;;;;;;;;;;;;10.96;100.00;102146.34;4982443;28;20036;-74
2023/06/05 02:56:45;;;;;;;;;;;;;;;10.92;100.00;102150.19;4971819;28;19921;-74
2023/06/05 02:59:10;;;;;;;;;;;;;;;10.85;100.00;102143.41;4977144;28;20016;-74
2023/06/05 03:01:35;;;;;;;;;;;;;;;10.84;100.00;102147.94;4973873;28;19947;-74
2023/06/05 03:04:02;;;;;;;;;;;;;;;10.82;100.00;102147.16;4959166;28;19954;-74
2023/06/05 03:06:27;;;;;;;;;;;;;;;10.74;100.00;102147.59;4971278;28;20024;-73
2023/06/05 03:08:55;;;;;;;;;;;;;;;10.76;100.00;102148.38;4967756;28;19922;-74
2023/06/05 03:11:21;;;;;;;;;;;;;;;10.68;100.00;102147.97;4971392;28;19972;-74
2023/06/05 03:13:46;;;;;;;;;;;;;;;10.65;100.00;102148.97;4956137;28;19925;-73
2023/06/05 03:16:12;;;;;;;;;;;;;;;10.65;100.00;102148.97;4978694;28;19973;-74
2023/06/05 03:18:38;;;;;;;;;;;;;;;10.65;100.00;102148.97;4962688;28;20361;-74
2023/06/05 03:21:03;;;;;;;;;;;;;;;10.65;100.00;102150.81;4980302;28;20116;-75
2023/06/05 03:23:28;;;;;;;;;;;;;;;10.64;100.00;102144.56;4965445;28;21042;-74
2023/06/05 03:25:54;;;;;;;;;;;;;;;10.65;100.00;102145.44;4966544;28;20509;-74
2023/06/05 03:28:20;;;;;;;;;;;;;;;10.55;100.00;102142.44;4979645;28;20345;-75
2023/06/05 03:30:45;;;;;;;;;;;;;;;10.56;100.00;102141.47;4945125;28;19922;-74
2023/06/05 03:33:11;;;;;;;;;;;;;;;10.48;100.00;102144.56;4956076;28;20432;-74
2023/06/05 03:35:36;;;;;;;;;;;;;;;10.39;100.00;102144.22;4965564;28;20452;-77
2023/06/05 03:38:01;;;;;;;;;;;;;;;10.49;100.00;102140.94;4955686;28;19922;-74
2023/06/05 03:40:27;;;;;;;;;;;;;;;10.56;100.00;102144.16;4968870;28;19925;-75
2023/06/05 03:42:52;;;;;;;;;;;;;;;10.59;100.00;102140.41;4953543;28;19930;-73
2023/06/05 03:45:18;;;;;;;;;;;;;;;10.56;100.00;102135.22;4957126;28;19922;-73
2023/06/05 03:47:46;;;;;;;;;;;;;;;10.46;100.00;102132.19;4971438;28;19929;-73
2023/06/05 03:50:12;;;;;;;;;;;;;;;10.43;100.00;102140.41;4964824;28;19922;-73
2023/06/05 03:52:39;;;;;;;;;;;;;;;10.44;100.00;102140.34;4951546;28;19945;-73
2023/06/05 03:55:06;;;;;;;;;;;;;;;10.38;100.00;102140.66;4950551;28;20025;-73
2023/06/05 03:57:32;;;;;;;;;;;;;;;10.33;100.00;102138.22;4953056;28;19966;-73
2023/06/05 03:59:57;;;;;;;;;;;;;;;10.34;100.00;102136.41;4952423;28;20391;-73
2023/06/05 04:02:22;;;;;;;;;;;;;;;10.35;100.00;102135.47;4966993;28;19926;-73
2023/06/05 04:04:50;;;;;;;;;;;;;;;10.33;100.00;102132.84;4954438;28;19922;-73
2023/06/05 04:07:15;;;;;;;;;;;;;;;10.38;100.00;102134.41;4966280;28;19928;-73
2023/06/05 04:09:40;;;;;;;;;;;;;;;10.43;100.00;102138.63;4969362;28;19923;-73
2023/06/05 04:12:06;;;;;;;;;;;;;;;10.46;100.00;102134.88;4950373;28;19926;-73
2023/06/05 04:14:31;;;;;;;;;;;;;;;10.55;100.00;102129.00;4952953;28;20001;-74
2023/06/05 04:16:56;;;;;;;;;;;;;;;10.53;100.00;102133.59;4951218;28;20020;-73
2023/06/05 04:19:21;;;;;;;;;;;;;;;10.49;100.00;102129.34;4951113;28;19922;-74
2023/06/05 04:21:47;;;;;;;;;;;;;;;10.53;100.00;102133.59;4947265;28;20525;-74
2023/06/05 04:24:12;;;;;;;;;;;;;;;10.49;100.00;102134.72;4954300;28;20442;-74
2023/06/05 04:26:38;;;;;;;;;;;;;;;10.58;100.00;102128.81;4948231;28;19964;-73
2023/06/05 04:29:09;;;;;;;;;;;;;;;10.62;100.00;102142.94;4949766;28;20394;-73
2023/06/05 04:31:35;;;;;;;;;;;;;;;10.60;100.00;102134.94;4954438;28;19922;-74
2023/06/05 04:34:01;;;;;;;;;;;;;;;10.67;100.00;102140.84;4951124;28;20163;-74
2023/06/05 04:36:27;;;;;;;;;;;;;;;10.73;100.00;102145.84;4953051;28;19922;-74
2023/06/05 04:38:52;;;;;;;;;;;;;;;10.79;100.00;102145.50;4965916;28;19922;-73
2023/06/05 04:41:17;;;;;;;;;;;;;;;10.85;100.00;102147.00;4963984;28;20012;-73
2023/06/05 04:43:42;;;;;;;;;;;;;;;10.88;100.00;102146.78;4944108;28;19968;-73
2023/06/05 04:46:08;;;;;;;;;;;;;;;10.93;100.00;102147.38;4974089;28;19976;-73
2023/06/05 04:48:34;;;;;;;;;;;;;;;10.90;100.00;102155.63;4956841;28;19921;-74
2023/06/05 04:50:59;;;;;;;;;;;;;;;10.88;100.00;102159.38;4958389;28;19975;-72
2023/06/05 04:53:28;;;;;;;;;;;;;;;10.99;100.00;102153.38;4962737;28;19921;-73
2023/06/05 04:55:53;;;;;;;;;;;;;;;11.06;100.00;102152.91;4960881;28;19922;-74
2023/06/05 04:58:19;;;;;;;;;;;;;;;11.06;100.00;102155.59;4971566;28;20645;-74
2023/06/05 05:00:44;;;;;;;;;;;;;;;11.10;100.00;102156.28;4956105;28;20353;-74
2023/06/05 05:03:13;;;;;;;;;;;;;;;11.08;100.00;102156.38;4953698;28;19934;-73
2023/06/05 05:05:38;;;;;;;;;;;;;;;11.09;100.00;102157.25;4957878;28;19926;-73
2023/06/05 05:08:05;;;;;;;;;;;;;;;11.17;100.00;102162.16;4958256;28;19945;-73
2023/06/05 05:10:30;;;;;;;;;;;;;;;11.22;100.00;102166.31;4958689;28;19961;-74
2023/06/05 05:12:55;;;;;;;;;;;;;;;11.14;100.00;102138.16;4965153;28;20072;-75
2023/06/05 05:15:21;;;;;;;;;;;;;;;11.23;100.00;102159.13;4959899;28;20304;-73
2023/06/05 05:17:46;;;;;;;;;;;;;;;11.33;100.00;102160.28;4955739;28;20008;-75
2023/06/05 05:20:11;;;;;;;;;;;;;;;11.49;100.00;102159.38;4958552;28;19922;-73
2023/06/05 05:22:37;;;;;;;;;;;;;;;11.57;100.00;102161.59;4956068;28;20207;-75
2023/06/05 05:25:03;;;;;;;;;;;;;;;11.65;100.00;102149.41;4955575;28;19919;-74
2023/06/05 05:27:28;;;;;;;;;;;;;;;11.59;100.00;102157.84;4954283;28;20009;-73
2023/06/05 05:29:53;;;;;;;;;;;;;;;11.66;100.00;102152.94;4965993;28;19984;-72
2023/06/05 05:32:19;;;;;;;;;;;;;;;11.72;100.00;102149.03;4956053;28;20009;-75
2023/06/05 05:34:44;;;;;;;;;;;;;;;11.80;100.00;102149.41;4973920;28;20019;-74
2023/06/05 05:37:10;;;;;;;;;;;;;;;11.94;100.00;102148.53;4967098;28;19921;-75
2023/06/05 05:39:35;;;;;;;;;;;;;;;12.05;100.00;102151.47;4960554;28;19974;-75
2023/06/05 05:42:02;;;;;;;;;;;;;;;12.03;100.00;102152.53;4957709;28;20509;-75
2023/06/05 05:44:27;;;;;;;;;;;;;;;12.09;100.00;102157.50;4961873;28;19922;-74
2023/06/05 05:46:52;;;;;;;;;;;;;;;12.27;100.00;102150.97;4957236;28;20004;-74
2023/06/05 05:49:17;;;;;;;;;;;;;;;12.41;100.00;102151.88;4958536;28;19969;-74
2023/06/05 05:51:43;;;;;;;;;;;;;;;12.51;100.00;102147.63;4965280;28;19969;-75
2023/06/05 05:54:08;;;;;;;;;;;;;;;12.51;100.00;102154.84;4967530;28;20634;-75
2023/06/05 05:56:35;;;;;;;;;;;;;;;12.56;100.00;102153.59;4959382;28;19945;-74
2023/06/05 05:59:01;;;;;;;;;;;;;;;12.60;100.00;102154.25;4959086;28;19925;-74
2023/06/05 06:01:27;;;;;;;;;;;;;;;12.68;100.00;102159.13;4969991;28;19922;-75
2023/06/05 06:03:54;;;;;;;;;;;;;;;12.78;100.00;102159.38;4955804;28;20279;-76
2023/06/05 06:06:20;;;;;;;;;;;;;;;12.92;100.00;102163.84;4975781;28;19969;-75
2023/06/05 06:08:45;;;;;;;;;;;;;;;12.80;100.00;102161.03;4956602;28;19922;-73
2023/06/05 06:11:10;;;;;;;;;;;;;;;12.95;100.00;102160.97;4955944;28;19929;-74
2023/06/05 06:13:35;;;;;;;;;;;;;;;12.97;100.00;102167.13;4954431;28;19922;-74
2023/06/05 06:16:02;;;;;;;;;;;;;;;13.15;100.00;102168.56;4959830;28;19922;-75
2023/06/05 06:18:27;;;;;;;;;;;;;;;13.15;100.00;102171.25;4979981;28;20427;-75
2023/06/05 06:20:53;;;;;;;;;;;;;;;13.22;100.00;102176.25;4971454;28;19953;-74
2023/06/05 06:23:18;;;;;;;;;;;;;;;13.34;100.00;102173.56;4957608;28;20021;-73
2023/06/05 06:25:43;;;;;;;;;;;;;;;13.48;100.00;102174.50;4957394;28;19922;-76
2023/06/05 06:28:09;;;;;;;;;;;;;;;13.48;100.00;102171.81;4946399;28;19929;-75
2023/06/05 06:30:35;;;;;;;;;;;;;;;13.41;100.00;102176.75;4969065;28;19980;-76
2023/06/05 06:33:00;;;;;;;;;;;;;;;13.56;100.00;102179.38;4955120;28;19944;-75
2023/06/05 06:35:26;;;;;;;;;;;;;;;13.74;100.00;102185.31;4960734;28;20432;-76
2023/06/05 06:37:54;;;;;;;;;;;;;;;13.93;100.00;102166.84;4961801;28;20448;-76
2023/06/05 06:40:20;;;;;;;;;;;;;;;13.94;100.00;102175.78;4965015;28;19922;-75
2023/06/05 06:42:45;;;;;;;;;;;;;;;13.99;100.00;102173.63;4955489;28;19965;-73
2023/06/05 06:45:12;;;;;;;;;;;;;;;14.14;100.00;102173.53;4959853;28;20305;-74
2023/06/05 06:47:37;;;;;;;;;;;;;;;14.12;100.00;102175.47;4965814;28;20012;-75
2023/06/05 06:50:02;;;;;;;;;;;;;;;14.33;100.00;102178.44;4961531;28;19928;-76
2023/06/05 06:52:28;;;;;;;;;;;;;;;14.40;100.00;102177.03;4960000;28;19933;-75
2023/06/05 06:54:53;;;;;;;;;;;;;;;14.45;100.00;102179.38;4955131;28;19922;-74
2023/06/05 06:57:18;;;;;;;;;;;;;;;14.27;100.00;102177.06;4955261;28;19948;-74
2023/06/05 06:59:44;;;;;;;;;;;;;;;14.47;100.00;102169.31;4951438;28;19953;-75
2023/06/05 07:02:11;;;;;;;;;;;;;;;14.68;100.00;102180.41;4945558;28;19927;-73
2023/06/05 07:04:36;;;;;;;;;;;;;;;14.77;100.00;102177.06;4952526;28;20372;-73
2023/06/05 07:07:02;;;;;;;;;;;;;;;14.89;100.00;102179.81;4952054;28;19933;-74
2023/06/05 07:09:27;;;;;;;;;;;;;;;14.88;100.00;102178.97;4954776;28;20019;-75
2023/06/05 07:11:53;;;;;;;;;;;;;;;15.05;100.00;102179.50;4955377;28;20005;-73
2023/06/05 07:14:19;;;;;;;;;;;;;;;15.15;100.00;102180.56;4967093;28;19923;-73
2023/06/05 07:16:44;;;;;;;;;;;;;;;15.10;100.00;102183.59;4949028;28;20395;-72
2023/06/05 07:19:09;;;;;;;;;;;;;;;15.20;100.00;102181.06;4954255;28;20013;-73
2023/06/05 07:21:37;;;;;;;;;;;;;;;15.28;100.00;102189.44;4950220;28;20429;-74
2023/06/05 07:24:03;;;;;;;;;;;;;;;15.42;100.00;102179.41;4951226;28;19970;-75
2023/06/05 07:26:29;;;;;;;;;;;;;;;15.58;100.00;102181.78;4956194;28;20405;-75
2023/06/05 07:28:54;;;;;;;;;;;;;;;15.66;100.00;102184.75;4956398;28;19929;-74
2023/06/05 07:31:21;;;;;;;;;;;;;;;15.58;100.00;102192.63;4957585;28;20332;-73
2023/06/05 07:33:46;;;;;;;;;;;;;;;15.69;100.00;102192.63;4964047;28;20033;-74
2023/06/05 07:36:11;;;;;;;;;;;;;;;15.74;100.00;102189.59;4957564;28;20363;-72
2023/06/05 07:38:38;;;;;;;;;;;;;;;15.87;100.00;102195.78;4956243;28;20332;-73
2023/06/05 07:41:03;;;;;;;;;;;;;;;15.95;100.00;102194.31;4959477;28;20424;-76
2023/06/05 07:43:28;;;;;;;;;;;;;;;15.98;100.00;102192.22;4963310;28;19928;-76
2023/06/05 07:45:54;;;;;;;;;;;;;;;16.06;100.00;102185.31;4956066;28;19921;-76
2023/06/05 07:48:19;;;;;;;;;;;;;;;15.98;100.00;102194.06;4972230;28;20393;-78
2023/06/05 07:50:45;;;;;;;;;;;;;;;16.15;100.00;102190.00;4955197;28;20238;-77
2023/06/05 07:53:10;;;;;;;;;;;;;;;16.25;100.00;102187.44;4956115;28;19961;-74
2023/06/05 07:55:36;;;;;;;;;;;;;;;16.34;100.00;102194.78;4958983;28;19950;-76
2023/06/05 07:58:01;;;;;;;;;;;;;;;16.51;100.00;102188.00;4956591;28;19964;-75
2023/06/05 08:00:29;;;;;;;;;;;;;;;16.71;100.00;102185.47;4954852;28;19966;-74
2023/06/05 08:02:54;;;;;;;;;;;;;;;16.82;100.00;102187.34;4953422;28;19972;-75
2023/06/05 08:05:20;;;;;;;;;;;;;;;16.79;100.00;102186.59;4958007;28;19926;-73
2023/06/05 08:07:45;;;;;;;;;;;;;;;16.99;100.00;102186.81;4954995;28;19971;-75
2023/06/05 08:10:11;;;;;;;;;;;;;;;17.04;100.00;102186.41;4965936;28;20065;-73
2023/06/05 08:12:36;;;;;;;;;;;;;;;16.96;100.00;102186.19;4950825;28;19945;-75
2023/06/05 08:15:01;;;;;;;;;;;;;;;17.19;100.00;102178.81;4956566;28;19922;-74
2023/06/05 08:17:27;;;;;;;;;;;;;;;17.24;100.00;102180.13;4970819;28;19922;-78
2023/06/05 08:19:53;;;;;;;;;;;;;;;17.09;100.00;102170.59;4966883;28;20304;-76
2023/06/05 08:22:18;;;;;;;;;;;;;;;17.36;100.00;102178.22;4955265;28;19926;-75
2023/06/05 08:24:43;;;;;;;;;;;;;;;17.42;100.00;102170.56;4956232;28;19973;-75
2023/06/05 08:27:08;;;;;;;;;;;;;;;17.58;96.83;102167.38;4970122;28;20108;-74
2023/06/05 08:29:36;;;;;;;;;;;;;;;17.70;99.44;102169.03;4957556;28;19960;-73
2023/06/05 08:32:02;;;;;;;;;;;;;;;17.65;96.53;102166.69;4959401;28;20455;-74
2023/06/05 08:34:27;;;;;;;;;;;;;;;17.73;100.00;102165.19;4964960;28;19928;-75
2023/06/05 08:36:53;;;;;;;;;;;;;;;17.84;99.87;102162.41;4975037;28;19922;-76
2023/06/05 08:39:18;;;;;;;;;;;;;;;17.90;100.00;102153.69;4960785;28;19953;-76
2023/06/05 08:41:43;;;;;;;;;;;;;;;17.99;97.76;102155.63;4957545;28;20365;-74
2023/06/05 08:44:11;;;;;;;;;;;;;;;18.12;97.68;102160.81;4972300;28;20285;-73
2023/06/05 08:46:36;;;;;;;;;;;;;;;18.40;94.66;102154.78;4957236;28;19930;-74
2023/06/05 08:49:02;;;;;;;;;;;;;;;18.44;91.43;102150.75;4958202;28;19996;-73
2023/06/05 08:51:27;;;;;;;;;;;;;;;18.49;92.38;102142.19;4973242;28;20345;-76
2023/06/05 08:53:55;;;;;;;;;;;;;;;18.56;94.81;102146.03;4973376;28;19921;-75
2023/06/05 08:56:21;;;;;;;;;;;;;;;18.70;88.44;102148.38;4973950;28;20122;-76
2023/06/05 08:58:46;;;;;;;;;;;;;;;18.74;88.02;102138.94;4954108;28;19922;-73
2023/06/05 09:01:11;;;;;;;;;;;;;;;18.86;98.10;102141.50;4956345;28;20296;-75
2023/06/05 09:03:36;;;;;;;;;;;;;;;19.02;85.75;102138.25;4961550;28;19926;-74
2023/06/05 09:06:04;;;;;;;;;;;;;;;19.25;86.26;102138.81;4956724;28;19925;-75
2023/06/05 09:08:30;;;;;;;;;;;;;;;19.25;84.04;102136.09;4955696;28;19922;-74
2023/06/05 09:11:16;;;;;;;;;;;;;;;19.23;86.42;102142.66;4969624;28;19941;-74
2023/06/05 09:13:44;;;;;;;;;;;;;;;19.39;79.30;102142.94;4955077;28;19922;-74
2023/06/05 09:16:10;;;;;;;;;;;;;;;19.52;76.51;102150.81;4953115;28;19922;-74
2023/06/05 09:18:36;;;;;;;;;;;;;;;19.52;79.40;102147.19;4954193;28;19993;-72
2023/06/05 09:21:11;;;;;;;;;;;;;;;19.66;81.82;102140.44;4969356;28;19933;-74
2023/06/05 09:23:36;;;;;;;;;;;;;;;19.85;76.81;102140.38;4955995;28;19977;-75
2023/06/05 09:26:03;;;;;;;;;;;;;;;19.86;76.05;102144.81;4957986;28;20115;-73
2023/06/05 09:28:28;;;;;;;;;;;;;;;20.11;81.33;102139.72;4965596;28;20441;-74
2023/06/05 09:30:55;;;;;;;;;;;;;;;20.30;83.28;102140.63;4972740;28;19956;-74
2023/06/05 09:33:21;;;;;;;;;;;;;;;20.48;77.07;102144.22;4954865;28;20336;-75
2023/06/05 09:35:46;;;;;;;;;;;;;;;20.42;80.59;102133.09;4957798;28;20440;-73
2023/06/05 09:38:27;;;;;;;;;;;;;;;20.73;79.06;102138.19;4957960;28;19929;-73
2023/06/05 09:40:52;;;;;;;;;;;;;;;20.66;72.46;102130.63;4958028;28;20781;-71
2023/06/05 09:43:21;;;;;;;;;;;;;;;20.85;74.99;102131.50;4954540;28;20432;-75
2023/06/05 09:45:46;;;;;;;;;;;;;;;20.85;75.50;102126.03;4958053;28;20288;-73
2023/06/05 09:48:14;;;;;;;;;;;;;;;20.89;72.59;102119.25;4958432;28;20205;-71
2023/06/05 09:50:41;;;;;;;;;;;;;;;20.83;66.30;102118.03;4956480;28;20384;-75
2023/06/05 09:53:07;;;;;;;;;;;;;;;21.03;68.74;102127.94;4969386;28;19944;-73
2023/06/05 09:55:32;;;;;;;;;;;;;;;21.06;69.29;102120.28;4956446;28;20537;-71
2023/06/05 09:57:57;;;;;;;;;;;;;;;21.30;73.22;102129.66;4971586;28;19926;-75
2023/06/05 10:00:22;;;;;;;;;;;;;;;21.32;66.75;102130.38;4957129;28;19926;-73
2023/06/05 10:02:48;;;;;;;;;;;;;;;21.76;67.72;102129.47;4952762;28;19930;-75
2023/06/05 10:05:13;;;;;;;;;;;;;;;21.97;67.08;102125.47;4971693;28;19922;-74
2023/06/05 10:07:39;;;;;;;;;;;;;;;22.08;70.88;102121.59;4970827;28;19945;-74
2023/06/05 10:10:05;;;;;;;;;;;;;;;22.26;63.71;102121.50;4972135;28;19929;-73
2023/06/05 10:12:30;;;;;;;;;;;;;;;22.29;65.29;102116.53;4967416;28;19958;-74
2023/06/05 10:14:56;;;;;;;;;;;;;;;22.50;61.50;102108.91;4953589;28;20050;-73
2023/06/05 10:17:21;;;;;;;;;;;;;;;22.47;62.51;102105.50;4956933;28;19926;-73
2023/06/05 10:19:46;;;;;;;;;;;;;;;22.53;63.92;102108.59;4954260;28;19973;-73
2023/06/05 10:22:11;;;;;;;;;;;;;;;22.59;61.32;102116.13;4957792;28;20029;-73
2023/06/05 10:24:38;;;;;;;;;;;;;;;22.89;65.63;102111.88;4951966;28;19926;-75
2023/06/05 10:27:12;;;;;;;;;;;;;;;23.29;60.33;102109.31;4970653;28;19929;-74
2023/06/05 10:29:47;;;;;;;;;;;;;;;23.71;62.27;102110.09;4956979;28;20013;-72
2023/06/05 10:32:13;;;;;;;;;;;;;;;23.84;56.31;102112.28;4956917;28;19930;-72
2023/06/05 10:35:05;;;;;;;;;;;;;;;23.96;59.72;102110.00;4963346;28;20272;-76
2023/06/05 10:37:40;;;;;;;;;;;;;;;24.39;54.14;102106.88;4952330;28;19922;-74
2023/06/05 10:40:06;;;;;;;;;;;;;;;24.58;53.84;102099.22;4956551;28;19922;-75
2023/06/05 10:42:31;;;;;;;;;;;;;;;24.79;52.06;102101.31;4969724;28;19930;-74
2023/06/05 10:44:56;;;;;;;;;;;;;;;24.86;52.58;102105.06;4953877;28;20249;-74
2023/06/05 10:47:34;;;;;;;;;;;;;;;25.06;50.81;102090.78;4969763;28;19926;-74
2023/06/05 10:50:21;;;;;;;;;;;;;;;25.41;48.58;102100.22;4953131;28;19949;-73
2023/06/05 10:52:49;;;;;;;;;;;;;;;25.59;51.01;102096.28;4954779;28;19928;-75
2023/06/05 10:55:17;;;;;;;;;;;;;;;25.37;52.67;102093.41;4971600;28;19918;-74
2023/06/05 10:58:01;;;;;;;;;;;;;;;25.97;48.83;102087.06;4953026;28;19965;-71
2023/06/05 11:00:26;;;;;;;;;;;;;;;25.99;49.53;102090.47;4948426;28;20195;-74
2023/06/05 11:02:53;;;;;;;;;;;;;;;26.04;45.25;102088.88;4952783;28;19937;-75
2023/06/05 11:05:18;;;;;;;;;;;;;;;26.15;44.43;102083.94;4956023;28;19925;-76
2023/06/05 11:07:45;;;;;;;;;;;;;;;26.61;44.73;102085.47;4954479;28;19926;-74
2023/06/05 11:10:22;;;;;;;;;;;;;;;26.53;47.34;102088.34;4951591;28;20201;-74
2023/06/05 11:12:51;;;;;;;;;;;;;;;26.87;46.29;102078.53;4968688;28;20071;-75
2023/06/05 11:15:30;;;;;;;;;;;;;;;26.84;47.90;102073.44;4956103;28;19918;-75
2023/06/05 11:17:56;;;;;;;;;;;;;;;27.58;44.31;102077.59;4954070;28;19922;-74
2023/06/05 11:20:26;;;;;;;;;;;;;;;27.96;43.17;102081.78;4953883;28;20432;-73
2023/06/05 11:22:57;;;;;;;;;;;;;;;28.38;40.94;102068.81;4954102;28;19950;-73
2023/06/05 11:25:26;;;;;;;;;;;;;;;28.68;41.45;102064.81;4954400;28;19926;-74
2023/06/05 11:28:11;;;;;;;;;;;;;;;28.87;39.36;102061.22;4969798;28;19922;-73
2023/06/05 11:30:42;;;;;;;;;;;;;;;28.51;40.53;102061.59;4969732;28;19960;-75
2023/06/05 11:33:12;;;;;;;;;;;;;;;28.79;40.88;102057.81;4968420;28;19924;-74
2023/06/05 11:35:37;;;;;;;;;;;;;;;28.92;39.45;102056.97;4955707;28;19929;-70
2023/06/05 11:38:12;;;;;;;;;;;;;;;29.10;41.10;102050.78;4957334;28;20883;-71
2023/06/05 11:40:38;;;;;;;;;;;;;;;29.53;40.52;102054.97;4963915;28;19929;-71
2023/06/05 11:43:05;;;;;;;;;;;;;;;29.18;39.01;102040.34;4957184;28;19987;-71
2023/06/05 11:45:30;;;;;;;;;;;;;;;29.33;38.36;102053.09;4959687;28;19922;-70
2023/06/05 11:48:04;;;;;;;;;;;;;;;29.66;38.49;102052.19;4961371;28;19928;-72
2023/06/05 11:50:30;;;;;;;;;;;;;;;30.04;38.80;102061.63;4957691;28;20386;-72
2023/06/05 11:53:03;;;;;;;;;;;;;;;30.16;37.40;102040.47;4962222;28;19922;-73
2023/06/05 11:55:42;;;;;;;;;;;;;;;30.29;40.20;102045.06;4961685;28;20257;-72
2023/06/05 11:58:08;;;;;;;;;;;;;;;30.13;34.37;102045.59;4973518;28;19921;-72
2023/06/05 12:00:33;;;;;;;;;;;;;;;30.44;38.97;102041.97;4963657;28;19945;-71
2023/06/05 12:02:59;;;;;;;;;;;;;;;30.83;36.94;102041.91;4959654;28;19945;-72
2023/06/05 12:05:24;;;;;;;;;;;;;;;30.42;36.53;102038.59;4960795;28;19922;-75
2023/06/05 12:07:50;;;;;;;;;;;;;;;30.85;36.66;102033.38;4961869;28;19922;-73
2023/06/05 12:10:15;;;;;;;;;;;;;;;30.31;36.83;102031.84;4963969;28;19926;-70
2023/06/05 12:12:50;;;;;;;;;;;;;;;31.09;35.12;102032.50;4954377;28;19923;-74
2023/06/05 12:15:16;;;;;;;;;;;;;;;31.09;32.98;102029.72;4962507;28;19996;-72
2023/06/05 12:17:48;;;;;;;;;;;;;;;31.78;36.73;102028.78;4974575;28;20020;-71
2023/06/05 12:20:14;;;;;;;;;;;;;;;31.55;34.04;102027.53;4973184;28;19925;-71
2023/06/05 12:22:39;;;;;;;;;;;;;;;31.79;33.84;102030.44;4977251;28;19945;-71
2023/06/05 12:25:22;;;;;;;;;;;;;;;32.41;33.36;102023.81;4966166;28;20396;-73
2023/06/05 12:27:52;;;;;;;;;;;;;;;31.17;34.37;102022.19;4954578;28;19933;-70